createdAt,value
2017-11-15T00:00:41.456Z,1018.35
2017-11-15T00:02:34.455Z,1018.34
2017-11-15T00:03:34.506Z,1018.30
2017-11-15T00:05:27.506Z,1018.32
2017-11-15T00:06:27.543Z,1018.29
2017-11-15T00:08:20.530Z,1018.33
2017-11-15T00:09:20.582Z,1018.37
2017-11-15T00:11:13.584Z,1018.36
2017-11-15T00:12:13.623Z,1018.40
2017-11-15T00:14:06.606Z,1018.42
2017-11-15T00:15:06.660Z,1018.42
2017-11-15T00:16:59.662Z,1018.51
2017-11-15T00:17:59.698Z,1018.46
2017-11-15T00:19:52.701Z,1018.50
2017-11-15T00:20:52.740Z,1018.51
2017-11-15T00:22:45.717Z,1018.49
2017-11-15T00:23:45.778Z,1018.50
2017-11-15T00:25:38.775Z,1018.49
2017-11-15T00:26:38.818Z,1018.52
2017-11-15T00:28:31.804Z,1018.53
2017-11-15T00:29:31.867Z,1018.50
2017-11-15T00:31:24.866Z,1018.48
2017-11-15T00:32:24.902Z,1018.49
2017-11-15T00:34:17.887Z,1018.52
2017-11-15T00:35:17.941Z,1018.49
2017-11-15T00:37:10.942Z,1018.54
2017-11-15T00:38:10.978Z,1018.54
2017-11-15T00:40:03.980Z,1018.53
2017-11-15T00:41:04.015Z,1018.55
2017-11-15T00:42:56.992Z,1018.54
2017-11-15T00:43:57.053Z,1018.54
2017-11-15T00:45:50.056Z,1018.57
2017-11-15T00:46:50.093Z,1018.57
2017-11-15T00:48:43.073Z,1018.55
2017-11-15T00:49:43.130Z,1018.53
2017-11-15T00:51:36.133Z,1018.52
2017-11-15T00:52:36.174Z,1018.55
2017-11-15T00:54:29.149Z,1018.51
2017-11-15T00:55:29.207Z,1018.50
2017-11-15T00:57:22.207Z,1018.48
2017-11-15T00:58:22.247Z,1018.54
2017-11-15T01:00:15.247Z,1018.53
2017-11-15T01:01:15.282Z,1018.51
2017-11-15T01:03:08.268Z,1018.53
2017-11-15T01:04:08.324Z,1018.56
2017-11-15T01:06:01.331Z,1018.57
2017-11-15T01:07:01.369Z,1018.55
2017-11-15T01:08:54.364Z,1018.58
2017-11-15T01:09:54.410Z,1018.58
2017-11-15T01:11:47.412Z,1018.54
2017-11-15T01:12:47.451Z,1018.57
2017-11-15T01:14:40.939Z,1018.60
2017-11-15T01:15:40.997Z,1018.59
2017-11-15T01:17:33.997Z,1018.60
2017-11-15T01:18:34.037Z,1018.56
2017-11-15T01:20:27.040Z,1018.58
2017-11-15T01:21:27.078Z,1018.52
2017-11-15T01:23:20.064Z,1018.55
2017-11-15T01:24:20.119Z,1018.54
2017-11-15T01:26:13.123Z,1018.54
2017-11-15T01:27:13.160Z,1018.56
2017-11-15T01:29:06.144Z,1018.54
2017-11-15T01:30:06.196Z,1018.60
2017-11-15T01:31:59.198Z,1018.58
2017-11-15T01:32:59.238Z,1018.58
2017-11-15T01:34:52.223Z,1018.60
2017-11-15T01:35:52.281Z,1018.64
2017-11-15T01:37:45.283Z,1018.64
2017-11-15T01:38:45.319Z,1018.63
2017-11-15T01:40:38.326Z,1018.67
2017-11-15T01:41:38.364Z,1018.68
2017-11-15T01:43:31.353Z,1018.70
2017-11-15T01:44:31.407Z,1018.71
2017-11-15T01:46:24.406Z,1018.73
2017-11-15T01:47:24.443Z,1018.74
2017-11-15T01:49:17.423Z,1018.74
2017-11-15T01:50:17.480Z,1018.77
2017-11-15T01:52:10.525Z,1018.80
2017-11-15T01:53:10.517Z,1018.74
2017-11-15T01:55:03.498Z,1018.75
2017-11-15T01:56:03.556Z,1018.77
2017-11-15T01:57:56.556Z,1018.77
2017-11-15T01:58:56.593Z,1018.71
2017-11-15T02:00:49.593Z,1018.67
2017-11-15T02:01:49.629Z,1018.72
2017-11-15T02:03:42.616Z,1018.72
2017-11-15T02:04:42.672Z,1018.70
2017-11-15T02:06:35.677Z,1018.67
2017-11-15T02:07:35.713Z,1018.68
2017-11-15T02:09:28.701Z,1018.68
2017-11-15T02:10:28.753Z,1018.63
2017-11-15T02:12:21.755Z,1018.70
2017-11-15T02:13:21.792Z,1018.67
2017-11-15T02:15:15.284Z,1018.63
2017-11-15T02:16:15.339Z,1018.60
2017-11-15T02:18:08.345Z,1018.61
2017-11-15T02:19:08.383Z,1018.62
2017-11-15T02:21:01.384Z,1018.61
2017-11-15T02:22:01.421Z,1018.61
2017-11-15T02:23:54.405Z,1018.54
2017-11-15T02:24:54.461Z,1018.56
2017-11-15T02:26:47.460Z,1018.57
2017-11-15T02:27:47.499Z,1018.59
2017-11-15T02:29:40.495Z,1018.54
2017-11-15T02:30:40.538Z,1018.55
2017-11-15T02:32:33.540Z,1018.51
2017-11-15T02:33:33.578Z,1018.55
2017-11-15T02:35:26.563Z,1018.57
2017-11-15T02:36:26.617Z,1018.51
2017-11-15T02:38:19.620Z,1018.54
2017-11-15T02:39:19.656Z,1018.52
2017-11-15T02:41:12.661Z,1018.55
2017-11-15T02:42:12.697Z,1018.48
2017-11-15T02:44:05.684Z,1018.51
2017-11-15T02:45:05.737Z,1018.52
2017-11-15T02:46:58.741Z,1018.50
2017-11-15T02:47:58.778Z,1018.46
2017-11-15T02:49:51.764Z,1018.44
2017-11-15T02:50:51.820Z,1018.43
2017-11-15T02:52:44.819Z,1018.44
2017-11-15T02:53:44.855Z,1018.41
2017-11-15T02:55:37.837Z,1018.38
2017-11-15T02:56:37.902Z,1018.38
2017-11-15T02:58:30.904Z,1018.37
2017-11-15T02:59:33.914Z,1018.35
2017-11-15T03:01:23.945Z,1018.31
2017-11-15T03:02:23.984Z,1018.26
2017-11-15T03:04:16.968Z,1018.30
2017-11-15T03:05:17.024Z,1018.31
2017-11-15T03:07:10.025Z,1018.30
2017-11-15T03:08:10.062Z,1018.35
2017-11-15T03:10:03.048Z,1018.32
2017-11-15T03:11:03.110Z,1018.30
2017-11-15T03:12:56.109Z,1018.29
2017-11-15T03:13:56.145Z,1018.31
2017-11-15T03:15:49.123Z,1018.34
2017-11-15T03:16:49.186Z,1018.33
2017-11-15T03:18:42.183Z,1018.35
2017-11-15T03:19:42.226Z,1018.34
2017-11-15T03:21:35.225Z,1018.35
2017-11-15T03:22:35.261Z,1018.34
2017-11-15T03:24:28.246Z,1018.36
2017-11-15T03:25:28.303Z,1018.38
2017-11-15T03:27:21.304Z,1018.29
2017-11-15T03:28:21.343Z,1018.29
2017-11-15T03:30:14.327Z,1018.24
2017-11-15T03:31:14.383Z,1018.23
2017-11-15T03:33:07.388Z,1018.21
2017-11-15T03:34:07.420Z,1018.24
2017-11-15T03:36:00.400Z,1018.26
2017-11-15T03:37:00.463Z,1018.26
2017-11-15T03:38:53.459Z,1018.29
2017-11-15T03:39:53.497Z,1018.28
2017-11-15T03:41:46.498Z,1018.32
2017-11-15T03:42:46.537Z,1018.31
2017-11-15T03:44:39.517Z,1018.31
2017-11-15T03:45:39.574Z,1018.29
2017-11-15T03:47:32.574Z,1018.33
2017-11-15T03:48:32.615Z,1018.39
2017-11-15T03:50:25.594Z,1018.34
2017-11-15T03:51:25.652Z,1018.40
2017-11-15T03:53:18.650Z,1018.42
2017-11-15T03:54:18.687Z,1018.39
2017-11-15T03:56:11.676Z,1018.34
2017-11-15T03:57:11.733Z,1018.36
2017-11-15T03:59:04.734Z,1018.39
2017-11-15T04:00:04.770Z,1018.36
2017-11-15T04:01:57.772Z,1018.34
2017-11-15T04:02:57.811Z,1018.37
2017-11-15T04:04:50.794Z,1018.35
2017-11-15T04:05:50.848Z,1018.36
2017-11-15T04:07:43.850Z,1018.39
2017-11-15T04:08:43.887Z,1018.40
2017-11-15T04:10:36.868Z,1018.39
2017-11-15T04:11:36.931Z,1018.37
2017-11-15T04:13:29.932Z,1018.40
2017-11-15T04:14:29.971Z,1018.34
2017-11-15T04:16:22.954Z,1018.37
2017-11-15T04:17:23.014Z,1018.34
2017-11-15T04:19:16.011Z,1018.36
2017-11-15T04:20:16.048Z,1018.36
2017-11-15T04:22:09.047Z,1018.38
2017-11-15T04:23:09.086Z,1018.41
2017-11-15T04:25:02.076Z,1018.44
2017-11-15T04:26:02.124Z,1018.42
2017-11-15T04:27:55.132Z,1018.42
2017-11-15T04:28:55.175Z,1018.44
2017-11-15T04:30:48.150Z,1018.45
2017-11-15T04:31:48.203Z,1018.44
2017-11-15T04:33:41.204Z,1018.45
2017-11-15T04:34:41.241Z,1018.47
2017-11-15T04:36:34.228Z,1018.47
2017-11-15T04:37:34.284Z,1018.43
2017-11-15T04:39:27.291Z,1018.44
2017-11-15T04:40:27.330Z,1018.42
2017-11-15T04:42:20.333Z,1018.43
2017-11-15T04:43:20.371Z,1018.44
2017-11-15T04:45:13.356Z,1018.42
2017-11-15T04:46:13.410Z,1018.40
2017-11-15T04:48:06.408Z,1018.42
2017-11-15T04:49:06.451Z,1018.38
2017-11-15T04:50:59.426Z,1018.42
2017-11-15T04:51:59.483Z,1018.39
2017-11-15T04:53:52.483Z,1018.42
2017-11-15T04:54:52.521Z,1018.39
2017-11-15T04:56:45.503Z,1018.42
2017-11-15T04:57:45.565Z,1018.40
2017-11-15T04:59:38.563Z,1018.42
2017-11-15T05:00:38.600Z,1018.44
2017-11-15T05:02:31.602Z,1018.46
2017-11-15T05:03:31.640Z,1018.46
2017-11-15T05:05:24.621Z,1018.52
2017-11-15T05:06:24.679Z,1018.54
2017-11-15T05:08:17.677Z,1018.55
2017-11-15T05:09:17.716Z,1018.53
2017-11-15T05:11:10.701Z,1018.53
2017-11-15T05:12:10.751Z,1018.52
2017-11-15T05:14:03.753Z,1018.55
2017-11-15T05:15:03.791Z,1018.60
2017-11-15T05:16:56.795Z,1018.60
2017-11-15T05:17:56.828Z,1018.60
2017-11-15T05:19:49.828Z,1018.61
2017-11-15T05:20:49.865Z,1018.63
2017-11-15T05:22:42.871Z,1018.61
2017-11-15T05:23:42.902Z,1018.62
2017-11-15T05:25:35.883Z,1018.59
2017-11-15T05:26:35.939Z,1018.58
2017-11-15T05:28:28.947Z,1018.56
2017-11-15T05:29:28.985Z,1018.53
2017-11-15T05:31:21.971Z,1018.53
2017-11-15T05:32:22.024Z,1018.49
2017-11-15T05:34:15.029Z,1018.59
2017-11-15T05:35:15.070Z,1018.58
2017-11-15T05:37:08.045Z,1018.58
2017-11-15T05:38:08.103Z,1018.59
2017-11-15T05:40:01.106Z,1018.60
2017-11-15T05:41:01.145Z,1018.64
2017-11-15T05:42:54.145Z,1018.62
2017-11-15T05:43:54.186Z,1018.63
2017-11-15T05:45:47.165Z,1018.61
2017-11-15T05:46:47.229Z,1018.60
2017-11-15T05:48:40.223Z,1018.59
2017-11-15T05:49:40.260Z,1018.60
2017-11-15T05:51:33.246Z,1018.58
2017-11-15T05:52:33.306Z,1018.54
2017-11-15T05:54:26.312Z,1018.48
2017-11-15T05:55:26.341Z,1018.55
2017-11-15T05:57:19.342Z,1018.56
2017-11-15T05:58:19.380Z,1018.63
2017-11-15T06:00:12.378Z,1018.67
2017-11-15T06:01:12.416Z,1018.62
2017-11-15T06:03:05.419Z,1018.68
2017-11-15T06:04:05.457Z,1018.72
2017-11-15T06:05:58.436Z,1018.73
2017-11-15T06:06:58.494Z,1018.71
2017-11-15T06:08:51.501Z,1018.71
2017-11-15T06:09:51.590Z,1018.76
2017-11-15T06:11:44.559Z,1018.77
2017-11-15T06:12:44.635Z,1018.81
2017-11-15T06:14:38.146Z,1018.75
2017-11-15T06:15:38.222Z,1018.80
2017-11-15T06:17:31.179Z,1018.78
2017-11-15T06:18:31.426Z,1018.78
2017-11-15T06:20:24.251Z,1018.80
2017-11-15T06:21:24.196Z,1018.76
2017-11-15T06:23:17.248Z,1018.77
2017-11-15T06:24:17.239Z,1018.77
2017-11-15T06:26:10.268Z,1018.81
2017-11-15T06:27:10.303Z,1018.81
2017-11-15T06:29:03.354Z,1018.84
2017-11-15T06:30:03.360Z,1018.83
2017-11-15T06:31:56.343Z,1018.90
2017-11-15T06:32:56.466Z,1018.96
2017-11-15T06:34:49.426Z,1018.97
2017-11-15T06:35:49.409Z,1019.02
2017-11-15T06:37:42.480Z,1018.99
2017-11-15T06:38:42.437Z,1019.03
2017-11-15T06:40:35.414Z,1019.02
2017-11-15T06:41:35.472Z,1019.01
2017-11-15T06:43:28.473Z,1019.03
2017-11-15T06:44:28.512Z,1019.06
2017-11-15T06:46:21.496Z,1019.07
2017-11-15T06:47:21.549Z,1019.09
2017-11-15T06:49:14.556Z,1019.08
2017-11-15T06:50:14.597Z,1019.09
2017-11-15T06:52:07.586Z,1019.08
2017-11-15T06:53:07.637Z,1019.08
2017-11-15T06:55:00.640Z,1019.00
2017-11-15T06:56:00.678Z,1019.01
2017-11-15T06:57:53.679Z,1019.00
2017-11-15T06:58:53.718Z,1019.01
2017-11-15T07:00:46.696Z,1019.04
2017-11-15T07:01:46.753Z,1019.03
2017-11-15T07:03:39.757Z,1019.04
2017-11-15T07:04:39.793Z,1019.00
2017-11-15T07:06:32.781Z,1018.99
2017-11-15T07:07:32.841Z,1019.04
2017-11-15T07:09:25.842Z,1019.01
2017-11-15T07:10:25.881Z,1019.03
2017-11-15T07:12:18.863Z,1019.04
2017-11-15T07:13:18.921Z,1019.07
2017-11-15T07:15:12.428Z,1019.07
2017-11-15T07:16:12.465Z,1019.12
2017-11-15T07:18:05.465Z,1019.13
2017-11-15T07:19:05.503Z,1019.15
2017-11-15T07:20:58.489Z,1019.16
2017-11-15T07:21:58.546Z,1019.15
2017-11-15T07:23:51.554Z,1019.18
2017-11-15T07:24:51.593Z,1019.15
2017-11-15T07:26:44.577Z,1019.19
2017-11-15T07:27:44.632Z,1019.18
2017-11-15T07:29:37.630Z,1019.18
2017-11-15T07:30:37.673Z,1019.20
2017-11-15T07:32:30.652Z,1019.25
2017-11-15T07:33:30.705Z,1019.24
2017-11-15T07:35:23.705Z,1019.23
2017-11-15T07:36:23.743Z,1019.25
2017-11-15T07:38:16.745Z,1019.22
2017-11-15T07:39:16.786Z,1019.24
2017-11-15T07:41:09.768Z,1019.29
2017-11-15T07:42:09.823Z,1019.27
2017-11-15T07:44:02.825Z,1019.32
2017-11-15T07:45:02.862Z,1019.31
2017-11-15T07:46:55.846Z,1019.36
2017-11-15T07:47:55.902Z,1019.38
2017-11-15T07:49:48.899Z,1019.40
2017-11-15T07:50:48.940Z,1019.46
2017-11-15T07:52:41.917Z,1019.47
2017-11-15T07:53:41.980Z,1019.45
2017-11-15T07:55:34.978Z,1019.46
2017-11-15T07:56:35.014Z,1019.48
2017-11-15T07:58:28.016Z,1019.47
2017-11-15T07:59:28.055Z,1019.47
2017-11-15T08:01:21.038Z,1019.51
2017-11-15T08:02:21.092Z,1019.49
2017-11-15T08:04:14.101Z,1019.50
2017-11-15T08:05:14.128Z,1019.54
2017-11-15T08:07:07.114Z,1019.57
2017-11-15T08:08:07.168Z,1019.55
2017-11-15T08:10:00.209Z,1019.57
2017-11-15T08:11:00.207Z,1019.56
2017-11-15T08:12:53.191Z,1019.55
2017-11-15T08:13:53.245Z,1019.55
2017-11-15T08:15:46.760Z,1019.55
2017-11-15T08:16:46.791Z,1019.55
2017-11-15T08:18:39.796Z,1019.54
2017-11-15T08:19:39.828Z,1019.55
2017-11-15T08:21:32.814Z,1019.54
2017-11-15T08:22:32.869Z,1019.54
2017-11-15T08:24:25.911Z,1019.55
2017-11-15T08:25:25.910Z,1019.54
2017-11-15T08:27:18.897Z,1019.55
2017-11-15T08:28:18.957Z,1019.54
2017-11-15T08:30:11.959Z,1019.58
2017-11-15T08:31:11.995Z,1019.60
2017-11-15T08:33:04.981Z,1019.61
2017-11-15T08:34:05.039Z,1019.59
2017-11-15T08:35:58.036Z,1019.60
2017-11-15T08:36:58.076Z,1019.59
2017-11-15T08:38:51.075Z,1019.61
2017-11-15T08:39:51.112Z,1019.59
2017-11-15T08:41:44.093Z,1019.62
2017-11-15T08:42:44.152Z,1019.59
2017-11-15T08:44:37.159Z,1019.62
2017-11-15T08:45:37.201Z,1019.58
2017-11-15T08:47:30.177Z,1019.57
2017-11-15T08:48:30.234Z,1019.55
2017-11-15T08:50:23.236Z,1019.53
2017-11-15T08:51:23.275Z,1019.58
2017-11-15T08:53:16.260Z,1019.58
2017-11-15T08:54:16.315Z,1019.56
2017-11-15T08:56:09.313Z,1019.57
2017-11-15T08:57:09.354Z,1019.59
2017-11-15T08:59:02.354Z,1019.56
2017-11-15T09:00:02.392Z,1019.58
2017-11-15T09:01:55.403Z,1019.59
2017-11-15T09:02:55.444Z,1019.58
2017-11-15T09:04:48.447Z,1019.54
2017-11-15T09:05:48.484Z,1019.53
2017-11-15T09:07:41.463Z,1019.59
2017-11-15T09:08:41.522Z,1019.58
2017-11-15T09:10:34.527Z,1019.59
2017-11-15T09:11:34.564Z,1019.62
2017-11-15T09:13:27.550Z,1019.65
2017-11-15T09:14:27.606Z,1019.66
2017-11-15T09:16:20.608Z,1019.66
2017-11-15T09:17:20.647Z,1019.69
2017-11-15T09:19:13.627Z,1019.65
2017-11-15T09:20:13.688Z,1019.65
2017-11-15T09:22:06.694Z,1019.64
2017-11-15T09:23:06.733Z,1019.59
2017-11-15T09:24:59.734Z,1019.61
2017-11-15T09:25:59.774Z,1019.62
2017-11-15T09:27:52.758Z,1019.62
2017-11-15T09:28:52.814Z,1019.61
2017-11-15T09:30:45.820Z,1019.65
2017-11-15T09:31:45.863Z,1019.69
2017-11-15T09:33:38.840Z,1019.69
2017-11-15T09:34:38.895Z,1019.69
2017-11-15T09:36:31.897Z,1019.65
2017-11-15T09:37:31.934Z,1019.69
2017-11-15T09:39:24.917Z,1019.65
2017-11-15T09:40:24.975Z,1019.66
2017-11-15T09:42:17.979Z,1019.66
2017-11-15T09:43:18.017Z,1019.69
2017-11-15T09:45:11.020Z,1019.69
2017-11-15T09:46:11.060Z,1019.73
2017-11-15T09:48:04.044Z,1019.74
2017-11-15T09:49:04.099Z,1019.75
2017-11-15T09:50:57.102Z,1019.80
2017-11-15T09:51:57.141Z,1019.76
2017-11-15T09:53:50.129Z,1019.73
2017-11-15T09:54:50.182Z,1019.80
2017-11-15T09:56:43.185Z,1019.73
2017-11-15T09:57:43.223Z,1019.75
2017-11-15T09:59:36.209Z,1019.74
2017-11-15T10:00:36.266Z,1019.75
2017-11-15T10:02:29.272Z,1019.77
2017-11-15T10:03:29.312Z,1019.75
2017-11-15T10:05:22.316Z,1019.79
2017-11-15T10:06:22.357Z,1019.76
2017-11-15T10:08:15.343Z,1019.77
2017-11-15T10:09:15.399Z,1019.78
2017-11-15T10:11:08.401Z,1019.82
2017-11-15T10:12:08.439Z,1019.80
2017-11-15T10:14:01.426Z,1019.79
2017-11-15T10:15:01.486Z,1019.81
2017-11-15T10:16:54.483Z,1019.78
2017-11-15T10:17:54.522Z,1019.76
2017-11-15T10:19:47.507Z,1019.76
2017-11-15T10:20:47.566Z,1019.77
2017-11-15T10:22:40.572Z,1019.78
2017-11-15T10:23:40.611Z,1019.77
2017-11-15T10:25:33.613Z,1019.74
2017-11-15T10:26:33.652Z,1019.76
2017-11-15T10:28:26.638Z,1019.75
2017-11-15T10:29:26.692Z,1019.75
2017-11-15T10:31:19.698Z,1019.74
2017-11-15T10:32:19.737Z,1019.74
2017-11-15T10:34:12.724Z,1019.72
2017-11-15T10:35:12.777Z,1019.72
2017-11-15T10:37:05.784Z,1019.74
2017-11-15T10:38:05.822Z,1019.70
2017-11-15T10:39:58.808Z,1019.68
2017-11-15T10:40:58.868Z,1019.68
2017-11-15T10:42:51.870Z,1019.68
2017-11-15T10:43:51.910Z,1019.62
2017-11-15T10:45:44.913Z,1019.66
2017-11-15T10:46:44.949Z,1019.60
2017-11-15T10:48:37.933Z,1019.65
2017-11-15T10:49:37.992Z,1019.59
2017-11-15T10:51:31.018Z,1019.61
2017-11-15T10:52:31.034Z,1019.64
2017-11-15T10:54:24.020Z,1019.60
2017-11-15T10:55:24.081Z,1019.62
2017-11-15T10:57:17.084Z,1019.62
2017-11-15T10:58:17.121Z,1019.61
2017-11-15T11:00:10.114Z,1019.61
2017-11-15T11:01:10.176Z,1019.64
2017-11-15T11:03:03.182Z,1019.59
2017-11-15T11:04:03.218Z,1019.57
2017-11-15T11:05:56.224Z,1019.56
2017-11-15T11:06:56.264Z,1019.52
2017-11-15T11:08:49.247Z,1019.54
2017-11-15T11:09:49.308Z,1019.52
2017-11-15T11:11:42.315Z,1019.54
2017-11-15T11:12:42.355Z,1019.59
2017-11-15T11:14:35.341Z,1019.60
2017-11-15T11:15:35.398Z,1019.58
2017-11-15T11:17:28.402Z,1019.58
2017-11-15T11:18:28.441Z,1019.59
2017-11-15T11:20:21.430Z,1019.58
2017-11-15T11:21:21.483Z,1019.57
2017-11-15T11:23:14.484Z,1019.59
2017-11-15T11:24:14.525Z,1019.54
2017-11-15T11:26:07.529Z,1019.57
2017-11-15T11:27:07.566Z,1019.55
2017-11-15T11:29:00.551Z,1019.57
2017-11-15T11:30:00.609Z,1019.56
2017-11-15T11:31:53.612Z,1019.57
2017-11-15T11:32:53.659Z,1019.55
2017-11-15T11:34:46.640Z,1019.57
2017-11-15T11:35:46.697Z,1019.53
2017-11-15T11:37:39.700Z,1019.50
2017-11-15T11:38:39.742Z,1019.52
2017-11-15T11:40:32.731Z,1019.52
2017-11-15T11:41:32.783Z,1019.51
2017-11-15T11:43:25.811Z,1019.46
2017-11-15T11:44:25.833Z,1019.48
2017-11-15T11:46:18.834Z,1019.48
2017-11-15T11:47:18.872Z,1019.43
2017-11-15T11:49:11.861Z,1019.46
2017-11-15T11:50:11.921Z,1019.43
2017-11-15T11:52:04.924Z,1019.42
2017-11-15T11:53:04.964Z,1019.42
2017-11-15T11:54:57.953Z,1019.49
2017-11-15T11:55:58.018Z,1019.44
2017-11-15T11:57:51.016Z,1019.48
2017-11-15T11:58:51.054Z,1019.49
2017-11-15T12:00:44.034Z,1019.46
2017-11-15T12:01:44.096Z,1019.45
2017-11-15T12:03:37.097Z,1019.45
2017-11-15T12:04:37.136Z,1019.43
2017-11-15T12:06:30.140Z,1019.45
2017-11-15T12:07:30.177Z,1019.46
2017-11-15T12:09:23.161Z,1019.44
2017-11-15T12:10:23.217Z,1019.48
2017-11-15T12:12:16.223Z,1019.45
2017-11-15T12:13:16.261Z,1019.45
2017-11-15T12:15:09.753Z,1019.44
2017-11-15T12:16:09.810Z,1019.44
2017-11-15T12:18:02.811Z,1019.45
2017-11-15T12:19:02.851Z,1019.45
2017-11-15T12:20:55.838Z,1019.44
2017-11-15T12:21:55.899Z,1019.48
2017-11-15T12:23:48.903Z,1019.42
2017-11-15T12:24:48.943Z,1019.47
2017-11-15T12:26:41.950Z,1019.43
2017-11-15T12:27:41.995Z,1019.40
2017-11-15T12:29:34.977Z,1019.39
2017-11-15T12:30:35.034Z,1019.39
2017-11-15T12:32:28.041Z,1019.41
2017-11-15T12:33:28.074Z,1019.36
2017-11-15T12:35:21.066Z,1019.40
2017-11-15T12:36:21.118Z,1019.38
2017-11-15T12:38:14.124Z,1019.37
2017-11-15T12:39:14.158Z,1019.35
2017-11-15T12:41:07.146Z,1019.35
2017-11-15T12:42:07.215Z,1019.35
2017-11-15T12:44:00.212Z,1019.33
2017-11-15T12:45:00.250Z,1019.34
2017-11-15T12:46:53.253Z,1019.35
2017-11-15T12:47:53.294Z,1019.31
2017-11-15T12:49:46.284Z,1019.32
2017-11-15T12:50:46.342Z,1019.34
2017-11-15T12:52:39.347Z,1019.32
2017-11-15T12:53:39.386Z,1019.34
2017-11-15T12:55:32.373Z,1019.32
2017-11-15T12:56:32.441Z,1019.31
2017-11-15T12:58:25.437Z,1019.30
2017-11-15T12:59:25.478Z,1019.29
2017-11-15T13:01:18.464Z,1019.28
2017-11-15T13:02:18.520Z,1019.23
2017-11-15T13:04:11.528Z,1019.23
2017-11-15T13:05:11.564Z,1019.26
2017-11-15T13:07:04.571Z,1019.26
2017-11-15T13:08:04.612Z,1019.24
2017-11-15T13:09:57.597Z,1019.26
2017-11-15T13:10:57.653Z,1019.27
2017-11-15T13:12:50.659Z,1019.26
2017-11-15T13:13:50.702Z,1019.30
2017-11-15T13:15:44.193Z,1019.32
2017-11-15T13:16:44.250Z,1019.32
2017-11-15T13:18:37.252Z,1019.32
2017-11-15T13:19:37.293Z,1019.33
2017-11-15T13:21:30.277Z,1019.33
2017-11-15T13:22:30.333Z,1019.30
2017-11-15T13:24:23.351Z,1019.28
2017-11-15T13:25:23.374Z,1019.28
2017-11-15T13:27:16.380Z,1019.31
2017-11-15T13:28:16.423Z,1019.27
2017-11-15T13:30:09.401Z,1019.27
2017-11-15T13:31:09.457Z,1019.26
2017-11-15T13:33:02.459Z,1019.25
2017-11-15T13:34:02.500Z,1019.23
2017-11-15T13:35:55.488Z,1019.23
2017-11-15T13:36:55.541Z,1019.24
2017-11-15T13:38:48.544Z,1019.21
2017-11-15T13:39:48.582Z,1019.22
2017-11-15T13:41:41.568Z,1019.20
2017-11-15T13:42:41.625Z,1019.24
2017-11-15T13:44:34.631Z,1019.28
2017-11-15T13:45:34.671Z,1019.24
2017-11-15T13:47:27.673Z,1019.25
2017-11-15T13:48:27.714Z,1019.23
2017-11-15T13:50:20.698Z,1019.25
2017-11-15T13:51:20.753Z,1019.24
2017-11-15T13:53:13.758Z,1019.22
2017-11-15T13:54:13.793Z,1019.24
2017-11-15T13:56:06.785Z,1019.27
2017-11-15T13:57:06.835Z,1019.27
2017-11-15T13:58:59.843Z,1019.30
2017-11-15T13:59:59.884Z,1019.24
2017-11-15T14:01:52.869Z,1019.28
2017-11-15T14:02:52.922Z,1019.27
2017-11-15T14:04:45.946Z,1019.28
2017-11-15T14:05:45.987Z,1019.28
2017-11-15T14:07:39.007Z,1019.28
2017-11-15T14:08:39.047Z,1019.31
2017-11-15T14:10:32.027Z,1019.28
2017-11-15T14:11:32.088Z,1019.28
2017-11-15T14:13:25.089Z,1019.34
2017-11-15T14:14:25.128Z,1019.32
2017-11-15T14:16:18.109Z,1019.31
2017-11-15T14:17:18.170Z,1019.33
2017-11-15T14:19:11.176Z,1019.31
2017-11-15T14:20:11.215Z,1019.33
2017-11-15T14:22:04.210Z,1019.29
2017-11-15T14:23:04.259Z,1019.27
2017-11-15T14:24:57.275Z,1019.28
2017-11-15T14:25:57.312Z,1019.27
2017-11-15T14:27:50.322Z,1019.25
2017-11-15T14:28:50.362Z,1019.28
2017-11-15T14:30:43.357Z,1019.28
2017-11-15T14:31:43.417Z,1019.26
2017-11-15T14:33:36.423Z,1019.29
2017-11-15T14:34:36.458Z,1019.27
2017-11-15T14:36:29.448Z,1019.30
2017-11-15T14:37:29.517Z,1019.25
2017-11-15T14:39:22.512Z,1019.27
2017-11-15T14:40:22.565Z,1019.27
2017-11-15T14:42:15.535Z,1019.29
2017-11-15T14:43:15.593Z,1019.29
2017-11-15T14:45:08.600Z,1019.30
2017-11-15T14:46:08.636Z,1019.31
2017-11-15T14:48:01.639Z,1019.30
2017-11-15T14:49:01.683Z,1019.29
2017-11-15T14:50:54.659Z,1019.31
2017-11-15T14:51:54.720Z,1019.32
2017-11-15T14:53:47.727Z,1019.29
2017-11-15T14:54:47.791Z,1019.29
2017-11-15T14:56:40.748Z,1019.30
2017-11-15T14:57:40.817Z,1019.31
2017-11-15T14:59:33.808Z,1019.30
2017-11-15T15:00:33.847Z,1019.29
2017-11-15T15:02:26.833Z,1019.31
2017-11-15T15:03:26.895Z,1019.32
2017-11-15T15:05:19.892Z,1019.34
2017-11-15T15:06:19.959Z,1019.37
2017-11-15T15:08:13.026Z,1019.36
2017-11-15T15:09:13.027Z,1019.37
2017-11-15T15:11:06.010Z,1019.37
2017-11-15T15:12:06.043Z,1019.33
2017-11-15T15:13:59.115Z,1019.35
2017-11-15T15:14:59.112Z,1019.37
2017-11-15T15:16:52.095Z,1019.36
2017-11-15T15:17:52.151Z,1019.39
2017-11-15T15:19:45.110Z,1019.41
2017-11-15T15:20:45.155Z,1019.40
2017-11-15T15:22:38.632Z,1019.39
2017-11-15T15:23:38.692Z,1019.38
2017-11-15T15:25:31.695Z,1019.37
2017-11-15T15:26:31.734Z,1019.39
2017-11-15T15:28:24.739Z,1019.37
2017-11-15T15:29:24.776Z,1019.38
2017-11-15T15:31:17.759Z,1019.39
2017-11-15T15:32:17.817Z,1019.43
2017-11-15T15:34:10.821Z,1019.39
2017-11-15T15:35:10.861Z,1019.39
2017-11-15T15:37:03.846Z,1019.38
2017-11-15T15:38:03.907Z,1019.36
2017-11-15T15:39:56.921Z,1019.41
2017-11-15T15:40:56.941Z,1019.40
2017-11-15T15:42:49.953Z,1019.37
2017-11-15T15:43:49.991Z,1019.42
2017-11-15T15:45:42.987Z,1019.42
2017-11-15T15:46:43.028Z,1019.42
2017-11-15T15:48:36.048Z,1019.38
2017-11-15T15:49:36.073Z,1019.33
2017-11-15T15:51:29.565Z,1019.35
2017-11-15T15:52:29.631Z,1019.32
2017-11-15T15:54:22.629Z,1019.32
2017-11-15T15:55:22.674Z,1019.27
2017-11-15T15:57:15.675Z,1019.29
2017-11-15T15:58:15.704Z,1019.27
2017-11-15T16:00:08.706Z,1019.29
2017-11-15T16:01:08.761Z,1019.26
2017-11-15T16:03:01.736Z,1019.31
2017-11-15T16:04:01.796Z,1019.30
2017-11-15T16:05:54.802Z,1019.30
2017-11-15T16:06:54.835Z,1019.28
2017-11-15T16:08:47.853Z,1019.29
2017-11-15T16:09:47.902Z,1019.27
2017-11-15T16:11:40.865Z,1019.29
2017-11-15T16:12:40.925Z,1019.31
2017-11-15T16:14:33.935Z,1019.34
2017-11-15T16:15:33.970Z,1019.36
2017-11-15T16:17:26.952Z,1019.37
2017-11-15T16:18:27.012Z,1019.42
2017-11-15T16:20:20.013Z,1019.39
2017-11-15T16:21:20.052Z,1019.37
2017-11-15T16:23:13.038Z,1019.36
2017-11-15T16:24:13.093Z,1019.35
2017-11-15T16:26:06.098Z,1019.39
2017-11-15T16:27:06.135Z,1019.41
2017-11-15T16:28:59.138Z,1019.40
2017-11-15T16:29:59.203Z,1019.43
2017-11-15T16:31:52.163Z,1019.43
2017-11-15T16:32:52.223Z,1019.42
2017-11-15T16:34:45.225Z,1019.40
2017-11-15T16:35:45.271Z,1019.42
2017-11-15T16:37:38.250Z,1019.36
2017-11-15T16:38:38.304Z,1019.40
2017-11-15T16:40:31.309Z,1019.39
2017-11-15T16:41:31.350Z,1019.40
2017-11-15T16:43:24.339Z,1019.43
2017-11-15T16:44:24.404Z,1019.45
2017-11-15T16:46:17.411Z,1019.44
2017-11-15T16:47:17.453Z,1019.46
2017-11-15T16:49:10.494Z,1019.42
2017-11-15T16:50:10.502Z,1019.41
2017-11-15T16:52:03.491Z,1019.40
2017-11-15T16:53:03.555Z,1019.37
2017-11-15T16:54:56.574Z,1019.36
2017-11-15T16:55:56.594Z,1019.39
2017-11-15T16:57:49.594Z,1019.38
2017-11-15T16:58:49.656Z,1019.37
2017-11-15T17:00:42.663Z,1019.39
2017-11-15T17:01:42.699Z,1019.39
2017-11-15T17:03:35.691Z,1019.35
2017-11-15T17:04:35.755Z,1019.33
2017-11-15T17:06:28.753Z,1019.32
2017-11-15T17:07:28.808Z,1019.34
2017-11-15T17:09:22.680Z,1019.33
2017-11-15T17:10:22.713Z,1019.31
2017-11-15T17:12:15.690Z,1019.30
2017-11-15T17:13:15.753Z,1019.34
2017-11-15T17:15:10.297Z,1019.32
2017-11-15T17:16:10.302Z,1019.29
2017-11-15T17:18:03.284Z,1019.33
2017-11-15T17:19:03.355Z,1019.31
2017-11-15T17:20:56.350Z,1019.30
2017-11-15T17:21:56.388Z,1019.31
2017-11-15T17:23:49.377Z,1019.31
2017-11-15T17:24:49.436Z,1019.28
2017-11-15T17:26:42.443Z,1019.30